Time;durP1;ratioP1;P1;durP2;ratioP2;P2;SDS_P1;SDS_P2;PMS_P1;PMS_P2;Temp;Humidity;BMP_temperature;BMP_pressure;BME280_temperature;BME280_humidity;BME280_pressure;Samples;Min_cycle;Max_cycle;Signal;HPM_P1;HPM_P2
2021/07/02 00:01:48;;;;;;;0.20;0.20;;;;;;;14.74;98.00;100720.44;5043242;28;20512;-88
2021/07/02 00:04:21;;;;;;;0.20;0.20;;;;;;;14.71;98.34;100721.06;5045598;28;20052;-89
2021/07/02 00:06:55;;;;;;;0.20;0.20;;;;;;;14.71;98.38;100717.53;5045629;28;20040;-89
2021/07/02 00:09:34;;;;;;;0.73;0.35;;;;;;;14.67;98.47;100717.31;5054537;28;20626;-88
2021/07/02 00:12:09;;;;;;;0.20;0.20;;;;;;;14.56;98.21;100696.72;5035302;28;20076;-89
2021/07/02 00:14:41;;;;;;;0.30;0.20;;;;;;;14.62;98.08;100720.13;5033624;28;20049;-89
2021/07/02 00:17:14;;;;;;;0.30;0.30;;;;;;;14.61;98.27;100727.56;5050617;28;20049;-87
2021/07/02 00:19:48;;;;;;;0.20;0.20;;;;;;;14.52;98.30;100725.84;5052682;28;20045;-90
2021/07/02 00:22:20;;;;;;;0.25;0.20;;;;;;;14.49;98.52;100723.72;5050115;28;20068;-88
2021/07/02 00:25:18;;;;;;;0.28;0.20;;;;;;;14.47;97.94;100729.47;5052458;28;20057;-89
2021/07/02 00:27:46;;;;;;;0.20;0.20;;;;;;;14.44;97.85;100725.44;5030227;28;20061;-89
2021/07/02 00:30:23;;;;;;;0.50;0.30;;;;;;;14.45;98.76;100724.31;5052483;28;20048;-88
2021/07/02 00:32:57;;;;;;;0.30;0.30;;;;;;;14.44;99.03;100727.34;5028084;28;20053;-89
2021/07/02 00:35:33;;;;;;;0.30;0.30;;;;;;;14.48;98.87;100716.59;5042283;28;20053;-89
2021/07/02 00:38:08;;;;;;;0.65;0.40;;;;;;;14.51;99.23;100730.47;5068572;28;20045;-88
2021/07/02 00:40:45;;;;;;;1.02;0.50;;;;;;;14.48;99.28;100716.59;5045256;28;20056;-89
2021/07/02 00:43:13;;;;;;;0.45;0.30;;;;;;;14.70;99.02;100730.41;5045011;28;20386;-89
2021/07/02 00:45:51;;;;;;;1.13;0.47;;;;;;;14.71;99.38;100739.44;5050650;28;20770;-88
2021/07/02 00:48:35;;;;;;;0.93;0.47;;;;;;;14.63;99.82;100732.75;5037040;28;20049;-89
2021/07/02 00:51:09;;;;;;;1.85;0.50;;;;;;;14.67;99.85;100735.69;5031840;28;20056;-89
2021/07/02 00:53:44;;;;;;;1.08;0.30;;;;;;;14.72;100.00;100733.66;5032079;28;20073;-89
2021/07/02 00:56:17;;;;;;;0.55;0.40;;;;;;;14.71;99.76;100740.25;5032910;28;20056;-88
2021/07/02 00:58:48;;;;;;;0.32;0.30;;;;;;;14.73;99.97;100735.25;5049004;28;20088;-89
2021/07/02 01:01:24;;;;;;;3.83;0.95;;;;;;;14.69;100.00;100736.19;5044775;28;20070;-88
2021/07/02 01:04:02;;;;;;;0.73;0.50;;;;;;;14.71;100.00;100737.50;5032470;28;20830;-89
2021/07/02 01:06:37;;;;;;;2.85;0.95;;;;;;;14.74;100.00;100727.88;5049024;28;20053;-89
2021/07/02 01:09:20;;;;;;;1.95;0.75;;;;;;;14.74;100.00;100728.66;5032502;28;20513;-89
2021/07/02 01:12:53;;;;;;;2.83;0.70;;;;;;;14.73;100.00;100732.53;5032505;28;20519;-89
2021/07/02 01:15:28;;;;;;;2.05;0.80;;;;;;;14.71;100.00;100728.50;5022598;28;20053;-88
2021/07/02 01:18:14;;;;;;;1.13;0.60;;;;;;;14.84;100.00;100730.38;5034868;28;20053;-89
2021/07/02 01:20:49;;;;;;;0.57;0.43;;;;;;;14.77;100.00;100722.56;5026492;28;20053;-88
2021/07/02 01:23:53;;;;;;;0.60;0.52;;;;;;;14.83;100.00;100728.78;5032116;28;20520;-90
2021/07/02 01:26:23;;;;;;;0.50;0.50;;;;;;;14.85;100.00;100732.00;5035320;28;20060;-89
2021/07/02 01:28:57;;;;;;;0.60;0.60;;;;;;;14.81;100.00;100727.47;5031488;28;20072;-89
2021/07/02 01:31:31;;;;;;;0.50;0.50;;;;;;;14.86;100.00;100728.16;5021619;28;20045;-88
2021/07/02 01:34:04;;;;;;;0.50;0.50;;;;;;;14.98;100.00;100726.81;5027967;28;20045;-90
2021/07/02 01:36:39;;;;;;;0.40;0.40;;;;;;;14.97;100.00;100731.50;5048891;28;20072;-89
2021/07/02 01:39:19;;;;;;;;;;;;;;;14.95;100.00;100736.44;5032548;28;20065;-87
2021/07/02 01:41:53;;;;;;;0.40;0.40;;;;;;;15.01;100.00;100732.50;5026112;28;1112481;-86
2021/07/02 01:44:27;;;;;;;0.40;0.40;;;;;;;14.92;100.00;100735.13;5056283;28;20079;-87
2021/07/02 01:47:01;;;;;;;0.40;0.40;;;;;;;14.99;100.00;100742.13;5036234;28;20056;-88
2021/07/02 01:49:36;;;;;;;0.40;0.40;;;;;;;14.98;100.00;100744.03;5053510;28;20509;-89
2021/07/02 01:52:11;;;;;;;0.63;0.47;;;;;;;15.01;100.00;100748.09;5014148;28;20052;-88
2021/07/02 01:54:45;;;;;;;0.73;0.50;;;;;;;15.02;100.00;100744.25;5032912;28;20060;-89
2021/07/02 01:57:22;;;;;;;0.40;0.40;;;;;;;15.03;99.72;100732.19;5037959;28;20057;-88
2021/07/02 02:00:58;;;;;;;0.55;0.50;;;;;;;15.04;100.00;100744.75;5026038;28;20046;-88
2021/07/02 02:08:02;;;;;;;0.40;0.40;;;;;;;15.06;99.74;100737.03;5030307;28;20652;-89
2021/07/02 02:10:38;;;;;;;0.73;0.50;;;;;;;15.07;100.00;100742.22;5026585;28;20068;-88
2021/07/02 02:13:13;;;;;;;0.50;0.50;;;;;;;15.10;100.00;100740.78;5023540;28;20057;-88
2021/07/02 02:15:56;;;;;;;0.40;0.40;;;;;;;15.13;100.00;100734.69;5029255;28;20049;-90
2021/07/02 02:18:30;;;;;;;0.50;0.50;;;;;;;15.17;100.00;100737.63;5027742;28;20477;-89
2021/07/02 02:20:58;;;;;;;0.40;0.40;;;;;;;15.23;99.64;100739.94;5033871;28;20065;-89
2021/07/02 02:23:36;;;;;;;0.40;0.40;;;;;;;15.21;99.58;100741.38;5032166;28;20513;-89
2021/07/02 02:26:18;;;;;;;0.38;0.38;;;;;;;15.13;99.78;100745.63;5031187;28;20059;-89
2021/07/02 02:28:53;;;;;;;0.40;0.40;;;;;;;15.21;99.55;100750.38;5037846;28;20068;-88
2021/07/02 02:31:23;;;;;;;0.50;0.50;;;;;;;15.13;99.92;100748.38;5033151;28;20053;-88
2021/07/02 02:34:06;;;;;;;0.38;0.38;;;;;;;15.12;100.00;100752.22;5050875;28;20059;-88
2021/07/02 02:36:51;;;;;;;0.40;0.40;;;;;;;14.98;99.56;100757.75;5043143;28;20060;-89
2021/07/02 02:39:33;;;;;;;0.30;0.30;;;;;;;14.98;99.61;100752.28;5035691;28;20051;-89
2021/07/02 02:42:08;;;;;;;0.30;0.30;;;;;;;14.90;99.85;100753.81;5044538;28;20052;-89
2021/07/02 02:44:42;;;;;;;0.40;0.40;;;;;;;14.93;99.81;100760.63;5037771;28;20051;-89
2021/07/02 02:47:16;;;;;;;0.40;0.30;;;;;;;14.87;100.00;100748.94;5057045;28;20067;-89
2021/07/02 02:50:37;;;;;;;0.30;0.30;;;;;;;14.92;100.00;100761.72;5039870;28;20045;-90
2021/07/02 02:54:05;;;;;;;0.40;0.40;;;;;;;14.91;99.98;100766.38;5029800;28;20082;-88
2021/07/02 02:57:08;;;;;;;0.32;0.32;;;;;;;14.93;99.93;100775.13;5045290;28;20523;-88
2021/07/02 02:59:44;;;;;;;0.45;0.45;;;;;;;14.91;99.77;100771.06;5043386;28;20060;-89
2021/07/02 03:03:21;;;;;;;0.30;0.30;;;;;;;14.92;100.00;100770.75;5052378;28;20052;-89
2021/07/02 03:06:01;;;;;;;0.35;0.35;;;;;;;14.89;100.00;100768.63;5035910;28;20055;-89
2021/07/02 03:08:46;;;;;;;0.40;0.40;;;;;;;14.96;100.00;100768.22;5034285;28;20417;-88
2021/07/02 03:11:21;;;;;;;0.40;0.40;;;;;;;14.87;100.00;100767.31;5030475;28;20055;-88
2021/07/02 03:13:56;;;;;;;0.30;0.30;;;;;;;14.92;100.00;100773.50;5047746;28;20057;-87
2021/07/02 03:16:33;;;;;;;0.40;0.40;;;;;;;14.90;99.93;100777.66;5032181;28;20139;-88
2021/07/02 03:19:04;;;;;;;0.30;0.30;;;;;;;14.96;99.91;100792.88;5044864;28;20057;-88
2021/07/02 03:21:40;;;;;;;0.30;0.30;;;;;;;15.00;99.22;100782.09;5030838;28;20045;-88
2021/07/02 03:24:35;;;;;;;0.32;0.32;;;;;;;14.97;99.10;100789.03;5031516;28;20044;-89
2021/07/02 03:27:12;;;;;;;0.47;0.40;;;;;;;14.94;99.35;100784.97;5022849;28;20061;-87
2021/07/02 03:29:48;;;;;;;0.30;0.30;;;;;;;14.93;98.95;100788.81;5036009;28;20065;-88
2021/07/02 03:32:29;;;;;;;0.30;0.30;;;;;;;14.95;98.92;100796.75;5030554;28;20409;-88
2021/07/02 03:35:49;;;;;;;0.40;0.40;;;;;;;14.93;99.49;100794.31;5028895;28;20052;-89
2021/07/02 03:38:51;;;;;;;0.40;0.40;;;;;;;14.99;98.81;100794.19;5012530;28;20111;-89
2021/07/02 03:41:19;;;;;;;0.40;0.40;;;;;;;14.92;99.30;100794.63;5034731;28;20053;-89
2021/07/02 03:43:53;;;;;;;0.32;0.32;;;;;;;14.89;99.37;100800.72;5050660;28;20552;-88
2021/07/02 03:46:28;;;;;;;0.40;0.40;;;;;;;14.81;99.61;100783.06;5047130;28;20056;-88
2021/07/02 03:48:59;;;;;;;0.50;0.50;;;;;;;14.86;99.69;100810.34;5027172;28;20064;-88
2021/07/02 03:51:59;;;;;;;0.30;0.30;;;;;;;14.86;100.00;100815.00;5044869;28;20059;-88
2021/07/02 03:54:27;;;;;;;0.50;0.50;;;;;;;14.90;99.94;100810.53;5046777;28;20056;-88
2021/07/02 03:57:14;;;;;;;0.47;0.30;;;;;;;14.94;99.46;100795.94;5029946;28;20057;-88
2021/07/02 03:59:50;;;;;;;0.40;0.40;;;;;;;14.86;98.81;100810.34;5022418;28;20514;-88
2021/07/02 04:02:26;;;;;;;0.40;0.40;;;;;;;14.85;99.19;100821.63;5030684;28;20076;-88
2021/07/02 04:04:59;;;;;;;0.40;0.40;;;;;;;14.77;98.94;100817.66;5032187;28;20499;-88
2021/07/02 04:07:28;;;;;;;0.40;0.40;;;;;;;14.79;99.61;100821.72;5030237;28;20069;-88
2021/07/02 04:10:01;;;;;;;0.50;0.50;;;;;;;14.76;99.26;100818.75;5020972;28;20061;-87
2021/07/02 04:13:03;;;;;;;0.40;0.40;;;;;;;14.71;98.43;100825.16;5053779;28;20056;-88
2021/07/02 04:15:39;;;;;;;0.35;0.35;;;;;;;14.71;98.00;100821.63;5038441;28;20049;-87
2021/07/02 04:18:18;;;;;;;0.40;0.40;;;;;;;14.58;98.50;100810.34;5044681;28;20048;-89
2021/07/02 04:20:51;;;;;;;0.40;0.40;;;;;;;14.61;99.11;100820.66;5018955;28;20060;-87
2021/07/02 04:23:19;;;;;;;0.40;0.40;;;;;;;14.62;98.66;100826.94;5010536;28;20057;-88
2021/07/02 04:25:53;;;;;;;0.40;0.40;;;;;;;14.57;98.81;100824.31;5028841;28;20069;-88
2021/07/02 04:28:23;;;;;;;0.40;0.40;;;;;;;14.60;98.54;100830.00;5029927;28;20060;-88
2021/07/02 04:30:58;;;;;;;0.40;0.40;;;;;;;14.61;97.56;100823.41;5032100;28;20617;-88
2021/07/02 04:33:28;;;;;;;0.43;0.40;;;;;;;14.56;97.57;100826.25;5057282;28;20041;-88
2021/07/02 04:36:01;;;;;;;0.40;0.40;;;;;;;14.54;98.54;100827.66;5026264;28;20064;-88
2021/07/02 04:38:34;;;;;;;0.40;0.40;;;;;;;14.61;97.77;100831.63;5046642;28;20049;-89
2021/07/02 04:41:10;;;;;;;0.30;0.30;;;;;;;14.51;97.39;100829.06;5046432;28;20406;-89
2021/07/02 04:43:44;;;;;;;0.30;0.30;;;;;;;14.59;97.31;100844.00;5028857;28;20417;-87
2021/07/02 04:46:12;;;;;;;0.30;0.30;;;;;;;14.72;96.45;100837.75;5047490;28;20060;-86
2021/07/02 04:48:46;;;;;;;0.30;0.30;;;;;;;14.62;96.96;100843.38;5027481;28;20140;-87
2021/07/02 04:51:15;;;;;;;0.30;0.30;;;;;;;14.62;96.24;100830.56;5020077;28;20053;-88
2021/07/02 04:53:45;;;;;;;0.30;0.30;;;;;;;14.85;95.46;100846.28;5023568;28;20048;-88
2021/07/02 04:56:23;;;;;;;0.22;0.22;;;;;;;14.53;95.29;100834.25;5029449;28;20061;-88
2021/07/02 04:59:00;;;;;;;0.30;0.30;;;;;;;14.62;95.24;100846.13;5021442;28;20057;-88
2021/07/02 05:01:28;;;;;;;0.20;0.20;;;;;;;14.48;95.34;100828.88;5047351;28;20056;-88
2021/07/02 05:03:59;;;;;;;0.30;0.30;;;;;;;14.73;95.72;100844.03;5025133;28;20072;-87
2021/07/02 05:06:35;;;;;;;0.20;0.20;;;;;;;14.61;95.66;100839.84;5046140;28;20052;-89
2021/07/02 05:09:04;;;;;;;0.30;0.30;;;;;;;14.69;95.11;100832.06;5020120;28;20053;-87
2021/07/02 05:11:40;;;;;;;0.40;0.40;;;;;;;14.72;96.01;100836.91;5030737;28;20052;-87
2021/07/02 05:14:09;;;;;;;0.75;0.30;;;;;;;14.59;95.79;100844.00;5036176;28;20050;-88
2021/07/02 05:17:08;;;;;;;0.30;0.30;;;;;;;14.69;96.97;100856.72;5037069;28;20080;-88
2021/07/02 05:19:40;;;;;;;0.30;0.30;;;;;;;14.58;95.73;100831.41;5020128;28;20064;-88
2021/07/02 05:22:16;;;;;;;0.30;0.30;;;;;;;14.92;95.42;100852.97;5032326;28;20693;-90
2021/07/02 05:24:50;;;;;;;0.35;0.35;;;;;;;14.79;95.62;100842.84;5033153;28;20516;-86
2021/07/02 05:27:27;;;;;;;0.40;0.30;;;;;;;14.62;94.29;100814.13;5052264;28;20045;-88
2021/07/02 05:30:03;;;;;;;0.30;0.30;;;;;;;14.80;94.20;100844.44;5055264;28;20055;-87
2021/07/02 05:32:32;;;;;;;0.50;0.40;;;;;;;14.84;95.67;100852.88;5045236;28;20060;-89
2021/07/02 05:35:08;;;;;;;0.30;0.30;;;;;;;14.78;93.91;100844.75;5044259;28;20045;-86
2021/07/02 05:37:45;;;;;;;0.20;0.20;;;;;;;14.82;95.10;100853.19;5046126;28;20049;-88
2021/07/02 05:40:20;;;;;;;0.30;0.30;;;;;;;14.78;95.40;100850.22;5017476;28;20053;-89
2021/07/02 05:42:53;;;;;;;0.20;0.20;;;;;;;14.95;94.14;100852.34;5042991;28;20420;-88
2021/07/02 05:45:22;;;;;;;0.40;0.40;;;;;;;14.78;94.11;100849.41;5032084;28;20060;-89
2021/07/02 05:47:52;;;;;;;0.20;0.20;;;;;;;14.76;95.10;100855.22;5024277;28;20049;-88
2021/07/02 05:50:22;;;;;;;0.30;0.30;;;;;;;14.77;94.51;100865.03;5032394;28;20049;-88
2021/07/02 05:52:51;;;;;;;0.25;0.25;;;;;;;14.69;95.25;100862.19;5070859;28;20552;-89
2021/07/02 05:55:22;;;;;;;0.20;0.20;;;;;;;14.65;95.90;100851.00;5033308;28;20057;-89
2021/07/02 05:57:55;;;;;;;0.30;0.30;;;;;;;14.76;93.47;100866.16;5048913;28;20049;-88
2021/07/02 06:00:24;;;;;;;0.30;0.30;;;;;;;14.71;93.78;100858.03;5027555;28;20057;-89
2021/07/02 06:03:24;;;;;;;0.30;0.30;;;;;;;14.86;95.56;100865.16;5028770;28;20068;-89
2021/07/02 06:06:03;;;;;;;0.30;0.30;;;;;;;14.73;92.54;100869.50;5024188;28;20057;-88
2021/07/02 06:08:40;;;;;;;0.30;0.30;;;;;;;14.89;92.54;100870.03;5036362;28;20706;-88
2021/07/02 06:11:18;;;;;;;0.20;0.20;;;;;;;14.65;93.63;100872.13;5012465;28;20068;-88
2021/07/02 06:13:51;;;;;;;0.25;0.25;;;;;;;14.68;93.16;100882.47;5036339;28;20056;-88
2021/07/02 06:16:30;;;;;;;0.40;0.40;;;;;;;14.45;92.96;100863.16;5040119;28;20707;-88
2021/07/02 06:19:07;;;;;;;0.30;0.30;;;;;;;14.70;92.70;100877.53;5050122;28;20059;-89
2021/07/02 06:21:42;;;;;;;0.20;0.20;;;;;;;14.84;93.05;100872.84;5032098;28;20057;-89
2021/07/02 06:24:11;;;;;;;0.30;0.30;;;;;;;14.91;92.76;100875.19;5050692;28;20052;-89
2021/07/02 06:26:46;;;;;;;0.20;0.20;;;;;;;15.01;94.46;100858.56;5050390;28;20798;-88
2021/07/02 06:29:14;;;;;;;0.30;0.30;;;;;;;15.05;91.86;100812.16;5048520;28;20397;-87
2021/07/02 06:31:51;;;;;;;0.30;0.30;;;;;;;15.67;90.98;100874.66;5036825;28;20044;-88
2021/07/02 06:34:24;;;;;;;0.30;0.30;;;;;;;15.81;91.94;100878.22;5026395;28;20056;-92
2021/07/02 06:37:19;;;;;;;0.20;0.20;;;;;;;15.65;92.55;100869.50;5030359;28;20057;-91
2021/07/02 06:40:53;;;;;;;0.40;0.38;;;;;;;15.67;90.43;100874.66;5048587;28;20059;-90
2021/07/02 06:43:21;;;;;;;0.20;0.20;;;;;;;15.47;89.88;100884.19;5033124;28;20057;-89
2021/07/02 06:45:59;;;;;;;0.20;0.20;;;;;;;15.44;90.49;100866.41;5032296;28;20498;-90
2021/07/02 06:48:33;;;;;;;0.30;0.30;;;;;;;15.64;88.10;100876.09;5016965;28;20053;-89
2021/07/02 06:51:31;;;;;;;0.20;0.20;;;;;;;15.69;88.49;100875.19;5031805;28;20057;-89
2021/07/02 06:54:11;;;;;;;0.20;0.20;;;;;;;15.67;89.93;100871.94;5038923;28;20060;-90
2021/07/02 06:59:38;;;;;;;0.30;0.30;;;;;;;15.52;89.15;100870.34;5046358;28;20473;-90
2021/07/02 07:02:15;;;;;;;0.30;0.30;;;;;;;15.92;88.44;100854.09;5048689;28;20045;-89
2021/07/02 07:04:47;;;;;;;0.20;0.20;;;;;;;16.00;88.78;100871.72;5037410;28;20497;-88
2021/07/02 07:07:49;;;;;;;0.20;0.20;;;;;;;16.17;88.13;100879.28;5026103;28;20049;-89
2021/07/02 07:10:25;;;;;;;0.20;0.20;;;;;;;16.42;87.50;100879.75;5040332;28;20424;-90
2021/07/02 07:13:24;;;;;;;0.20;0.20;;;;;;;16.28;86.50;100877.91;5032358;28;20060;-91
2021/07/02 07:15:54;;;;;;;0.20;0.20;;;;;;;16.22;85.87;100867.38;5047935;28;20056;-90
2021/07/02 07:18:52;;;;;;;0.20;0.20;;;;;;;16.31;86.13;100882.78;5035774;28;20536;-88
2021/07/02 07:21:34;;;;;;;0.20;0.20;;;;;;;16.38;84.22;100871.34;5049431;28;20497;-90
2021/07/02 07:24:12;;;;;;;0.20;0.20;;;;;;;16.38;85.06;100868.59;5030838;28;20045;-92
2021/07/02 07:26:50;;;;;;;0.20;0.20;;;;;;;16.44;87.90;100822.56;5048156;28;20051;-92
2021/07/02 07:30:18;;;;;;;0.20;0.20;;;;;;;16.97;83.93;100879.41;5032005;28;20064;-92
2021/07/02 07:32:54;;;;;;;0.22;0.22;;;;;;;16.65;83.66;100864.03;5048879;28;20056;-88
2021/07/02 07:35:26;;;;;;;0.20;0.20;;;;;;;16.81;85.59;100847.94;5033621;28;20056;-89
2021/07/02 07:38:25;;;;;;;0.45;0.30;;;;;;;16.62;84.83;100889.41;5032004;28;20060;-89
2021/07/02 07:40:58;;;;;;;0.20;0.20;;;;;;;16.57;84.74;100886.78;5031221;28;20838;-90
2021/07/02 07:43:28;;;;;;;0.20;0.20;;;;;;;16.35;85.71;100893.13;5031532;28;20068;-90
2021/07/02 07:47:00;;;;;;;0.47;0.20;;;;;;;16.62;85.36;100892.94;5031820;28;20057;-91
2021/07/02 07:49:34;;;;;;;0.30;0.30;;;;;;;16.55;85.09;100865.13;5029422;28;20057;-91
2021/07/02 07:52:15;;;;;;;0.25;0.25;;;;;;;16.51;83.94;100847.66;5031322;28;20508;-93
2021/07/02 07:54:43;;;;;;;0.28;0.28;;;;;;;16.81;85.30;100872.69;5025491;28;20048;-89
2021/07/02 07:57:46;;;;;;;0.20;0.20;;;;;;;16.70;84.57;100891.38;5043598;28;20053;-89
2021/07/02 08:00:22;;;;;;;0.20;0.20;;;;;;;16.71;82.94;100895.75;5022900;28;20053;-89
2021/07/02 08:02:51;;;;;;;0.20;0.20;;;;;;;16.94;83.46;100893.75;5034173;28;20056;-89
2021/07/02 08:05:27;;;;;;;0.30;0.30;;;;;;;17.39;80.94;100895.53;5045852;28;20075;-91
2021/07/02 08:08:29;;;;;;;0.25;0.20;;;;;;;17.24;80.32;100899.53;5051346;28;20041;-89
2021/07/02 08:11:02;;;;;;;0.10;0.10;;;;;;;17.08;80.31;100901.91;5026909;28;20057;-90
2021/07/02 08:13:34;;;;;;;0.32;0.30;;;;;;;17.31;80.98;100902.59;5041949;28;20076;-89
2021/07/02 08:16:10;;;;;;;0.55;0.25;;;;;;;17.57;83.53;100896.34;5050180;28;20052;-88
2021/07/02 08:18:43;;;;;;;0.20;0.20;;;;;;;17.55;81.21;100884.03;5048647;28;20115;-90
2021/07/02 08:21:16;;;;;;;0.10;0.10;;;;;;;17.41;77.12;100907.00;5029331;28;20056;-87
2021/07/02 08:23:45;;;;;;;0.30;0.25;;;;;;;17.38;79.37;100904.09;5048520;28;20053;-90
2021/07/02 08:26:14;;;;;;;0.20;0.20;;;;;;;17.51;81.12;100914.97;5048959;28;20067;-89
2021/07/02 08:31:34;;;;;;;0.20;0.20;;;;;;;17.50;78.82;100918.84;5027528;28;20520;-89
2021/07/02 08:34:08;;;;;;;0.30;0.30;;;;;;;17.51;79.63;100914.13;5027304;28;20064;-88
2021/07/02 08:36:36;;;;;;;0.20;0.20;;;;;;;17.60;82.14;100916.91;5046140;28;20057;-89
2021/07/02 08:39:05;;;;;;;0.20;0.20;;;;;;;17.40;79.21;100926.56;5050838;28;20072;-89
2021/07/02 08:41:33;;;;;;;0.20;0.20;;;;;;;17.47;80.60;100930.50;5050166;28;20064;-89
2021/07/02 08:44:01;;;;;;;0.20;0.20;;;;;;;18.01;78.90;100916.47;5052199;28;20051;-90
2021/07/02 08:46:42;;;;;;;0.20;0.20;;;;;;;18.10;78.69;100916.47;5052897;28;20057;-88
2021/07/02 08:49:17;;;;;;;0.20;0.20;;;;;;;18.58;83.28;100913.81;5066724;28;20044;-88
2021/07/02 08:51:50;;;;;;;0.25;0.25;;;;;;;18.26;77.29;100919.53;5033169;28;20060;-88
2021/07/02 08:54:31;;;;;;;0.25;0.20;;;;;;;18.14;77.47;100914.69;5023810;28;20410;-91
2021/07/02 08:57:05;;;;;;;0.22;0.22;;;;;;;18.02;77.75;100911.78;5044092;28;20045;-90
2021/07/02 08:59:40;;;;;;;0.20;0.20;;;;;;;17.62;78.17;100922.91;5050999;28;20056;-90
2021/07/02 09:02:27;;;;;;;0.20;0.20;;;;;;;17.42;79.01;100894.06;5026741;28;20113;-91
2021/07/02 09:05:26;;;;;;;0.20;0.20;;;;;;;17.78;79.75;100921.28;5033387;28;20057;-88
2021/07/02 09:08:01;;;;;;;0.30;0.20;;;;;;;18.07;76.20;100908.84;5039998;28;20051;-89
2021/07/02 09:10:37;;;;;;;0.25;0.25;;;;;;;18.49;82.02;100922.06;5061621;28;20063;-88
2021/07/02 09:13:12;;;;;;;0.20;0.20;;;;;;;18.56;76.68;100925.16;5030293;28;20052;-90
2021/07/02 09:15:44;;;;;;;0.13;0.13;;;;;;;18.16;75.39;100928.13;5047291;28;20055;-87
2021/07/02 09:18:20;;;;;;;0.20;0.20;;;;;;;18.11;73.37;100920.84;5029289;28;20856;-90
2021/07/02 09:21:23;;;;;;;0.20;0.20;;;;;;;18.47;79.10;100910.59;5029268;28;20505;-88
2021/07/02 09:23:52;;;;;;;0.30;0.30;;;;;;;18.60;75.14;100909.59;5034282;28;20064;-90
2021/07/02 09:26:34;;;;;;;0.20;0.20;;;;;;;18.73;77.31;100927.06;5049884;28;20052;-89
2021/07/02 09:29:17;;;;;;;;;;;;;;;18.94;75.59;100929.13;5032988;28;20068;-90
2021/07/02 09:31:58;;;;;;;0.30;0.20;;;;;;;19.29;74.74;100927.00;5032260;28;19925;-90
2021/07/02 09:34:50;;;;;;;0.20;0.20;;;;;;;19.09;73.64;100927.75;5032839;28;20064;-88
2021/07/02 09:37:26;;;;;;;0.20;0.20;;;;;;;19.08;72.44;100921.41;5029349;28;20421;-88
2021/07/02 09:40:15;;;;;;;0.30;0.20;;;;;;;18.72;75.84;100921.88;5029509;28;20056;-89
2021/07/02 09:42:59;;;;;;;0.20;0.20;;;;;;;18.70;73.81;100914.72;5029628;28;20056;-90
2021/07/02 09:45:43;;;;;;;0.22;0.22;;;;;;;18.74;74.19;100925.09;5027592;28;20060;-90
2021/07/02 09:48:15;;;;;;;0.20;0.20;;;;;;;18.51;75.58;100914.31;5030868;28;20057;-89
2021/07/02 09:50:54;;;;;;;0.20;0.20;;;;;;;18.17;71.17;100888.44;5034298;28;20390;-90
2021/07/02 09:53:33;;;;;;;0.20;0.20;;;;;;;18.18;75.29;100926.66;5049507;28;20067;-91
2021/07/02 09:56:17;;;;;;;0.20;0.20;;;;;;;18.01;76.90;100924.75;5030149;28;20612;-89
2021/07/02 09:58:52;;;;;;;0.20;0.20;;;;;;;17.96;72.06;100924.09;5028168;28;20049;-89
2021/07/02 10:01:31;;;;;;;0.20;0.20;;;;;;;18.62;76.01;100923.84;5033359;28;20060;-90
2021/07/02 10:04:09;;;;;;;0.20;0.20;;;;;;;18.86;72.89;100915.00;5052808;28;20060;-88
2021/07/02 10:06:46;;;;;;;0.30;0.30;;;;;;;19.09;70.78;100905.69;5030877;28;20053;-89
2021/07/02 10:09:16;;;;;;;0.20;0.20;;;;;;;18.86;70.42;100901.22;5028828;28;20072;-90
2021/07/02 10:11:52;;;;;;;0.20;0.20;;;;;;;18.60;69.95;100914.28;5030479;28;20889;-90
2021/07/02 10:14:24;;;;;;;0.20;0.20;;;;;;;19.06;72.14;100925.66;5049920;28;20072;-89
2021/07/02 10:16:56;;;;;;;0.20;0.20;;;;;;;19.29;68.34;100917.91;5032476;28;20064;-90
2021/07/02 10:19:29;;;;;;;0.20;0.20;;;;;;;19.51;68.93;100917.63;5030696;28;20048;-89
2021/07/02 10:22:07;;;;;;;0.20;0.20;;;;;;;19.46;68.03;100894.91;5027188;28;20060;-89
2021/07/02 10:24:37;;;;;;;0.82;0.25;;;;;;;19.65;71.69;100886.16;5048752;28;20052;-89
2021/07/02 10:27:13;;;;;;;0.20;0.20;;;;;;;20.17;70.59;100909.81;5030428;28;21626;-91
2021/07/02 10:29:47;;;;;;;0.20;0.20;;;;;;;20.67;69.77;100913.50;5029834;28;20063;-91
2021/07/02 10:32:23;;;;;;;0.20;0.20;;;;;;;20.95;67.62;100910.94;5030599;28;20057;-91
2021/07/02 10:35:00;;;;;;;0.20;0.20;;;;;;;20.93;65.48;100909.66;5028286;28;20057;-89
2021/07/02 10:37:34;;;;;;;0.20;0.20;;;;;;;20.17;64.95;100871.13;5028869;28;20045;-90
2021/07/02 10:40:32;;;;;;;0.10;0.10;;;;;;;20.94;63.19;100916.81;5030691;28;20061;-91
2021/07/02 10:43:09;;;;;;;0.20;0.20;;;;;;;20.88;64.89;100905.16;5030999;28;20060;-90
2021/07/02 10:46:14;;;;;;;0.32;0.20;;;;;;;20.68;64.03;100915.16;5032034;28;20928;-91
2021/07/02 10:48:55;;;;;;;0.20;0.20;;;;;;;20.89;68.88;100906.78;5032725;28;20049;-90
2021/07/02 10:51:47;;;;;;;0.20;0.20;;;;;;;20.93;67.36;100896.63;5035571;28;20508;-90
2021/07/02 10:54:44;;;;;;;0.17;0.17;;;;;;;20.95;61.19;100916.47;5032929;28;20056;-89
2021/07/02 10:57:40;;;;;;;0.20;0.20;;;;;;;20.95;63.97;100916.47;5041026;28;20061;-91
2021/07/02 11:00:13;;;;;;;0.20;0.20;;;;;;;20.26;62.28;100893.97;5030136;28;20056;-90
2021/07/02 11:03:10;;;;;;;0.20;0.20;;;;;;;20.31;67.20;100918.59;5029741;28;20060;-91
2021/07/02 11:05:38;;;;;;;0.22;0.22;;;;;;;20.09;71.10;100917.03;5030303;28;20056;-93
2021/07/02 11:08:46;;;;;;;0.20;0.20;;;;;;;19.80;66.05;100923.44;5031460;28;20063;-89
2021/07/02 11:11:15;;;;;;;0.20;0.20;;;;;;;20.41;65.03;100911.03;5032903;28;20053;-91
2021/07/02 11:14:20;;;;;;;0.20;0.20;;;;;;;20.50;64.24;100909.00;5028576;28;20057;-90
2021/07/02 11:17:20;;;;;;;0.20;0.20;;;;;;;20.70;63.14;100908.16;5030499;28;20048;-90
2021/07/02 11:20:28;;;;;;;0.10;0.10;;;;;;;20.90;65.90;100909.19;5051619;28;20053;-91
2021/07/02 11:23:22;;;;;;;0.20;0.20;;;;;;;21.09;62.51;100915.31;5027999;28;20060;-90
2021/07/02 11:26:29;;;;;;;0.20;0.20;;;;;;;21.21;60.02;100902.28;5014714;28;20057;-90
2021/07/02 11:29:04;;;;;;;0.20;0.20;;;;;;;20.75;63.83;100903.53;5014945;28;20049;-90
2021/07/02 11:31:47;;;;;;;0.30;0.20;;;;;;;20.59;66.57;100903.34;5028493;28;20509;-92
2021/07/02 11:35:09;;;;;;;0.20;0.20;;;;;;;20.95;65.23;100910.94;5031216;28;20049;-90
2021/07/02 11:38:11;;;;;;;0.20;0.20;;;;;;;21.24;65.45;100903.56;5030787;28;20061;-89
2021/07/02 11:44:53;;;;;;;0.20;0.20;;;;;;;21.50;61.50;100899.59;5036562;28;20060;-90
2021/07/02 11:47:56;;;;;;;0.20;0.20;;;;;;;21.24;62.70;100901.59;5032014;28;20061;-91
2021/07/02 11:50:38;;;;;;;0.15;0.15;;;;;;;21.37;61.86;100907.91;5029522;28;20064;-90
2021/07/02 11:53:28;;;;;;;0.22;0.20;;;;;;;20.50;64.74;100895.97;5022824;28;20379;-92
2021/07/02 11:56:03;;;;;;;0.20;0.20;;;;;;;21.11;66.04;100916.56;5016106;28;20060;-90
2021/07/02 11:59:07;;;;;;;0.20;0.20;;;;;;;21.04;62.58;100914.38;5035103;28;20056;-90
2021/07/02 12:01:40;;;;;;;0.20;0.20;;;;;;;21.08;62.60;100914.50;5027584;28;20064;-88
2021/07/02 12:04:39;;;;;;;0.20;0.20;;;;;;;21.33;64.48;100909.75;5028780;28;20424;-90
2021/07/02 12:07:21;;;;;;;0.20;0.20;;;;;;;21.79;63.89;100909.56;5031128;28;20064;-90
2021/07/02 12:13:14;;;;;;;0.10;0.10;;;;;;;21.26;62.12;100905.97;5030154;28;20052;-89
2021/07/02 12:16:44;;;;;;;0.20;0.20;;;;;;;20.92;62.08;100914.38;5031589;28;20424;-91
2021/07/02 12:19:42;;;;;;;0.10;0.10;;;;;;;21.26;59.31;100908.75;5029551;28;20088;-90
2021/07/02 12:26:37;;;;;;;0.20;0.20;;;;;;;21.84;60.52;100908.53;5054375;28;20052;-90
2021/07/02 12:30:00;;;;;;;0.10;0.10;;;;;;;21.95;62.38;100917.16;5041822;28;20057;-91
2021/07/02 12:33:21;;;;;;;0.10;0.10;;;;;;;21.24;60.24;100912.66;5030354;28;20045;-90
2021/07/02 12:36:55;;;;;;;0.20;0.20;;;;;;;21.00;65.00;100915.44;5032881;28;20049;-92
2021/07/02 12:39:30;;;;;;;0.20;0.20;;;;;;;20.94;64.33;100898.25;5035358;28;20060;-91
2021/07/02 12:42:01;;;;;;;0.20;0.20;;;;;;;20.84;65.55;100916.13;5015142;28;20068;-91
2021/07/02 12:44:31;;;;;;;0.20;0.20;;;;;;;21.19;61.71;100912.88;5048409;28;20063;-91
2021/07/02 12:47:29;;;;;;;0.20;0.20;;;;;;;21.85;66.22;100924.81;5034661;28;20532;-89
2021/07/02 12:50:14;;;;;;;0.20;0.20;;;;;;;21.87;60.05;100910.59;5033922;28;20079;-92